MV Brant Point — WYS2397 — position and weather

sailwx.info

Track history (hours):
 
Tides and Currents Weather Stations Pressure Air Temp Water Temp Dewpoint Dewpoint Depression Visibility Wind Speed Wind Dir Waves Ship Positions

MV Brant Point

Owner: HYANNIS HARBOR TOURS INC, HYANNIS, MA. More information available from US FCC via Universal Licensing System and Coast Guard Vessel Documentation Center.

Last reported at 2017-Sep-19 14:12 UTC. Time now 2017-Sep-22 20:39 UTC.
Position N 42°22' W 071°03'.

Length 41 m; draft 2 m.

Type: Passenger vessel. MMSI: 367320410.

Date/timePositionNaut miles runAvg speedWind from/ knotsBaromVisibWave heightAir tempDewpointWater temp
2017-Sep-19 14:12N 42°22' W 071°03'0 0.0
2017-Sep-19 14:00N 42°22' W 071°03'0 0.0
2017-Sep-19 13:30N 42°22' W 071°03'0 0.0
2017-Sep-19 13:00N 42°22' W 071°03'0 0.4
2017-Sep-19 12:30N 42°22' W 071°03'  
2017-Sep-11 12:28N 42°23' W 071°03'1 2.9
2017-Sep-11 12:01N 42°22' W 071°03'0 0.0
2017-Sep-10 21:43N 42°22' W 071°03'1 3.6
2017-Sep-10 21:30N 42°21' W 071°02'510.1
2017-Sep-10 21:01N 42°19' W 070°56'0 0.9
2017-Sep-10 20:30N 42°19' W 070°56'5 9.8
2017-Sep-10 20:00N 42°21' W 071°02'1 1.9
2017-Sep-10 19:30N 42°21' W 071°01'4 8.8
2017-Sep-10 19:00N 42°19' W 070°56'2 4.3
2017-Sep-10 18:30N 42°20' W 070°59'4 7.4
2017-Sep-10 18:00N 42°22' W 071°03'1 2.6
2017-Sep-10 17:30N 42°21' W 071°01'5 9.1
2017-Sep-10 17:00N 42°19' W 070°56'2 4.5
2017-Sep-10 16:30N 42°20' W 070°59'4 7.1
2017-Sep-10 16:00N 42°22' W 071°03'1 3.0
2017-Sep-10 15:30N 42°21' W 071°01'4 8.7
2017-Sep-10 15:00N 42°19' W 070°56'6 5.8
2017-Sep-10 14:01N 42°22' W 071°03'0 0.5
2017-Sep-10 13:30N 42°22' W 071°03'0 0.1
2017-Sep-10 13:00N 42°22' W 071°03'0 0.0
2017-Sep-09 22:39N 42°22' W 071°03'0 1.1
2017-Sep-09 22:30N 42°22' W 071°03'0 0.3
2017-Sep-09 22:00N 42°22' W 071°03'1 2.8
2017-Sep-09 21:30N 42°21' W 071°01'4 8.7
2017-Sep-09 21:00N 42°19' W 070°56'1 2.6
2017-Sep-09 20:30N 42°20' W 070°57'5 9.0
2017-Sep-09 20:00N 42°22' W 071°03'1 2.7
2017-Sep-09 19:31N 42°21' W 071°01'4 8.9
2017-Sep-09 19:01N 42°19' W 070°56'2 3.6
2017-Sep-09 18:31N 42°20' W 070°58'4 8.1
2017-Sep-09 18:01N 42°22' W 071°03'1 1.9
2017-Sep-09 17:30N 42°21' W 071°02'5 9.7
2017-Sep-09 17:00N 42°19' W 070°56'2 4.3
2017-Sep-09 16:30N 42°20' W 070°58'4 7.3
2017-Sep-09 16:01N 42°22' W 071°03'2 3.9
2017-Sep-09 15:30N 42°21' W 071°01'4 7.8
2017-Sep-09 15:00N 42°19' W 070°56'2 4.6
2017-Sep-09 14:31N 42°20' W 070°59'  
Track history (hours):
 
Tides and Currents Weather Stations Pressure Air Temp Water Temp Dewpoint Dewpoint Depression Visibility Wind Speed Wind Dir Waves Ship Positions

MV Brant Point

Owner: HYANNIS HARBOR TOURS INC, HYANNIS, MA. More information available from US FCC via Universal Licensing System and Coast Guard Vessel Documentation Center.

Last reported at 2017-Sep-19 14:12 UTC. Time now 2017-Sep-22 20:39 UTC.
Position N 42°22' W 071°03'.

Length 41 m; draft 2 m.

Type: Passenger vessel. MMSI: 367320410.

Date/timePositionNaut miles runAvg speedWind from/ knotsBaromVisibWave heightAir tempDewpointWater temp
2017-Sep-19 14:12N 42°22' W 071°03'0 0.0
2017-Sep-19 14:00N 42°22' W 071°03'0 0.0
2017-Sep-19 13:30N 42°22' W 071°03'0 0.0
2017-Sep-19 13:00N 42°22' W 071°03'0 0.4
2017-Sep-19 12:30N 42°22' W 071°03'  
2017-Sep-11 12:28N 42°23' W 071°03'1 2.9
2017-Sep-11 12:01N 42°22' W 071°03'0 0.0
2017-Sep-10 21:43N 42°22' W 071°03'1 3.6
2017-Sep-10 21:30N 42°21' W 071°02'510.1
2017-Sep-10 21:01N 42°19' W 070°56'0 0.9
2017-Sep-10 20:30N 42°19' W 070°56'5 9.8
2017-Sep-10 20:00N 42°21' W 071°02'1 1.9
2017-Sep-10 19:30N 42°21' W 071°01'4 8.8
2017-Sep-10 19:00N 42°19' W 070°56'2 4.3
2017-Sep-10 18:30N 42°20' W 070°59'4 7.4
2017-Sep-10 18:00N 42°22' W 071°03'1 2.6
2017-Sep-10 17:30N 42°21' W 071°01'5 9.1
2017-Sep-10 17:00N 42°19' W 070°56'2 4.5
2017-Sep-10 16:30N 42°20' W 070°59'4 7.1
2017-Sep-10 16:00N 42°22' W 071°03'1 3.0
2017-Sep-10 15:30N 42°21' W 071°01'4 8.7
2017-Sep-10 15:00N 42°19' W 070°56'6 5.8
2017-Sep-10 14:01N 42°22' W 071°03'0 0.5
2017-Sep-10 13:30N 42°22' W 071°03'0 0.1
2017-Sep-10 13:00N 42°22' W 071°03'0 0.0
2017-Sep-09 22:39N 42°22' W 071°03'0 1.1
2017-Sep-09 22:30N 42°22' W 071°03'0 0.3
2017-Sep-09 22:00N 42°22' W 071°03'1 2.8
2017-Sep-09 21:30N 42°21' W 071°01'4 8.7
2017-Sep-09 21:00N 42°19' W 070°56'1 2.6
2017-Sep-09 20:30N 42°20' W 070°57'5 9.0
2017-Sep-09 20:00N 42°22' W 071°03'1 2.7
2017-Sep-09 19:31N 42°21' W 071°01'4 8.9
2017-Sep-09 19:01N 42°19' W 070°56'2 3.6
2017-Sep-09 18:31N 42°20' W 070°58'4 8.1
2017-Sep-09 18:01N 42°22' W 071°03'1 1.9
2017-Sep-09 17:30N 42°21' W 071°02'5 9.7
2017-Sep-09 17:00N 42°19' W 070°56'2 4.3
2017-Sep-09 16:30N 42°20' W 070°58'4 7.3
2017-Sep-09 16:01N 42°22' W 071°03'2 3.9
2017-Sep-09 15:30N 42°21' W 071°01'4 7.8
2017-Sep-09 15:00N 42°19' W 070°56'2 4.6
2017-Sep-09 14:31N 42°20' W 070°59'  

Dump ship's entire track history